Time;durP1;ratioP1;P1;durP2;ratioP2;P2;SDS_P1;SDS_P2;PMS_P1;PMS_P2;Temp;Humidity;BMP_temperature;BMP_pressure;BME280_temperature;BME280_humidity;BME280_pressure;Samples;Min_cycle;Max_cycle;Signal;HPM_P1;HPM_P2
2023/04/07 00:00:55;;;;;;;75.20;18.40;;;;;;;7.25;100.00;101320.47;4996638;28;20558;-84
2023/04/07 00:03:21;;;;;;;76.20;20.10;;;;;;;7.26;100.00;101314.03;4965137;28;20033;-84
2023/04/07 00:05:47;;;;;;;64.23;18.40;;;;;;;7.24;100.00;101313.38;4980772;28;20044;-83
2023/04/07 00:08:12;;;;;;;63.83;18.02;;;;;;;7.27;100.00;101315.72;4996434;28;20034;-83
2023/04/07 00:10:37;;;;;;;66.77;18.57;;;;;;;7.22;100.00;101317.28;5014145;28;20037;-83
2023/04/07 00:13:03;;;;;;;67.40;19.27;;;;;;;7.23;100.00;101318.97;5013985;28;20034;-83
2023/04/07 00:15:28;;;;;;;62.83;18.13;;;;;;;7.19;100.00;101313.94;4997179;28;20030;-83
2023/04/07 00:17:55;;;;;;;66.60;19.43;;;;;;;7.20;100.00;101312.91;4980244;28;20065;-83
2023/04/07 00:20:20;;;;;;;74.97;19.75;;;;;;;7.18;100.00;101314.94;4980545;28;20421;-83
2023/04/07 00:22:45;;;;;;;59.77;20.23;;;;;;;7.16;100.00;101318.84;4996506;28;20084;-83
2023/04/07 00:25:11;;;;;;;63.90;20.53;;;;;;;7.13;100.00;101319.19;5013966;28;20061;-83
2023/04/07 00:27:36;;;;;;;66.90;21.10;;;;;;;7.13;100.00;101322.75;4980155;28;20038;-83
2023/04/07 00:30:03;;;;;;;66.53;19.60;;;;;;;7.12;100.00;101329.16;4996100;28;20040;-83
2023/04/07 00:32:28;;;;;;;69.88;20.05;;;;;;;7.12;100.00;101334.56;4979692;28;20066;-84
2023/04/07 00:34:54;;;;;;;61.60;19.00;;;;;;;7.13;100.00;101322.75;4997213;28;20069;-83
2023/04/07 00:37:19;;;;;;;64.30;19.70;;;;;;;7.13;100.00;101324.59;5001051;28;20110;-83
2023/04/07 00:39:45;;;;;;;64.23;20.00;;;;;;;7.12;100.00;101318.38;4984148;28;20037;-84
2023/04/07 00:42:11;;;;;;;65.88;20.15;;;;;;;7.12;100.00;101317.53;5000441;28;20084;-83
2023/04/07 00:44:36;;;;;;;67.33;19.47;;;;;;;7.09;100.00;101316.03;5000462;28;20033;-84
2023/04/07 00:47:02;;;;;;;64.20;17.80;;;;;;;7.08;100.00;101318.91;4967434;28;20426;-83
2023/04/07 00:49:35;;;;;;;54.50;17.83;;;;;;;7.08;100.00;101318.91;4999979;28;20030;-83
2023/04/07 00:52:01;;;;;;;67.97;19.13;;;;;;;7.05;100.00;101317.41;5017597;28;20117;-83
2023/04/07 00:54:26;;;;;;;63.77;18.97;;;;;;;7.02;100.00;101320.47;4983791;28;20064;-83
2023/04/07 00:56:52;;;;;;;61.47;19.50;;;;;;;7.00;100.00;101323.34;4983747;28;20653;-83
2023/04/07 00:59:18;;;;;;;63.50;18.97;;;;;;;7.01;100.00;101318.78;4983652;28;20050;-83
2023/04/07 01:01:46;;;;;;;59.60;19.27;;;;;;;7.03;100.00;101324.88;4999949;28;20737;-83
2023/04/07 01:04:26;;;;;;;68.28;20.77;;;;;;;7.05;100.00;101330.06;5000325;28;20081;-84
2023/04/07 01:06:55;;;;;;;61.08;19.15;;;;;;;7.05;100.00;101325.50;5000031;28;20068;-84
2023/04/07 01:09:40;;;;;;;60.15;19.45;;;;;;;7.08;100.00;101325.16;5017627;28;20034;-83
2023/04/07 01:12:33;;;;;;;58.33;18.40;;;;;;;7.09;100.00;101328.69;4999365;28;20022;-84
2023/04/07 01:15:09;;;;;;;68.20;19.98;;;;;;;7.05;100.00;101328.22;4999486;28;20100;-84
2023/04/07 01:17:41;;;;;;;63.33;19.83;;;;;;;7.02;100.00;101334.78;4999312;28;20029;-83
2023/04/07 01:20:11;;;;;;;66.75;19.40;;;;;;;6.99;100.00;101324.38;5016912;28;20033;-83
2023/04/07 01:22:44;;;;;;;62.40;20.20;;;;;;;7.01;100.00;101329.56;5017681;28;20112;-83
2023/04/07 01:25:54;;;;;;;57.33;18.95;;;;;;;6.99;100.00;101320.84;4999557;28;20034;-84
2023/04/07 01:28:42;;;;;;;60.22;19.60;;;;;;;7.00;100.00;101327.91;4997416;28;20038;-83
2023/04/07 01:31:10;;;;;;;57.92;20.17;;;;;;;6.96;100.00;101323.91;4999244;28;20481;-84
2023/04/07 01:33:37;;;;;;;51.10;20.00;;;;;;;6.94;100.00;101329.47;4999172;28;20030;-83
2023/04/07 01:36:05;;;;;;;55.42;19.20;;;;;;;6.93;100.00;101329.66;4999304;28;20116;-83
2023/04/07 01:38:34;;;;;;;56.33;18.38;;;;;;;6.91;100.00;101326.28;5016799;28;20032;-82
2023/04/07 01:41:01;;;;;;;53.08;19.35;;;;;;;6.86;100.00;101332.22;4999185;28;20030;-84
2023/04/07 01:43:31;;;;;;;47.35;16.98;;;;;;;6.83;100.00;101336.09;4999390;28;20540;-83
2023/04/07 01:45:58;;;;;;;48.95;16.65;;;;;;;6.80;100.00;101343.72;4998179;28;20105;-84
2023/04/07 01:48:24;;;;;;;36.63;13.73;;;;;;;6.74;100.00;101344.44;4983217;28;20060;-83
2023/04/07 01:50:50;;;;;;;36.92;13.02;;;;;;;6.70;100.00;101345.81;4983380;28;20426;-83
2023/04/07 01:53:16;;;;;;;37.17;13.52;;;;;;;6.69;100.00;101350.38;4998961;28;20569;-83
2023/04/07 01:55:43;;;;;;;32.50;12.15;;;;;;;6.67;100.00;101350.56;4999248;28;20470;-83
2023/04/07 01:58:08;;;;;;;29.98;11.38;;;;;;;6.66;100.00;101348.88;4999353;28;20045;-83
2023/04/07 02:00:34;;;;;;;32.38;11.25;;;;;;;6.66;100.00;101354.25;4982276;28;20030;-84
2023/04/07 02:03:19;;;;;;;27.57;11.80;;;;;;;6.67;100.00;101357.78;4998839;28;20125;-83
2023/04/07 02:05:46;;;;;;;29.23;10.40;;;;;;;6.64;100.00;101361.69;4999625;28;20080;-83
2023/04/07 02:08:15;;;;;;;24.15;10.68;;;;;;;6.64;100.00;101355.44;5016251;28;20057;-83
2023/04/07 02:10:41;;;;;;;24.30;10.80;;;;;;;6.65;100.00;101357.13;5014905;28;20044;-83
2023/04/07 02:13:12;;;;;;;25.50;10.77;;;;;;;6.67;100.00;101357.78;4966272;28;20038;-83
2023/04/07 02:15:40;;;;;;;26.48;10.32;;;;;;;6.67;100.00;101361.34;4998950;28;20022;-83
2023/04/07 02:18:11;;;;;;;29.70;11.07;;;;;;;6.64;100.00;101364.41;5016098;28;20104;-83
2023/04/07 02:20:38;;;;;;;29.17;10.25;;;;;;;6.65;100.00;101360.66;4998479;28;20037;-83
2023/04/07 02:23:03;;;;;;;30.47;10.27;;;;;;;6.65;100.00;101359.84;5015975;28;20109;-83
2023/04/07 02:25:32;;;;;;;24.63;9.73;;;;;;;6.64;100.00;101350.06;4982975;28;20108;-83
2023/04/07 02:28:00;;;;;;;24.13;10.85;;;;;;;6.63;100.00;101351.91;4982094;28;20034;-83
2023/04/07 02:30:29;;;;;;;28.73;10.68;;;;;;;6.64;100.00;101358.13;5015784;28;20026;-84
2023/04/07 02:32:55;;;;;;;34.08;11.85;;;;;;;6.64;100.00;101345.53;4999243;28;20026;-83
2023/04/07 02:35:20;;;;;;;32.42;12.48;;;;;;;6.65;100.00;101347.19;4998149;28;20026;-83
2023/04/07 02:37:46;;;;;;;31.63;12.40;;;;;;;6.62;100.00;101350.22;4997991;28;20030;-84
2023/04/07 02:40:12;;;;;;;39.90;13.75;;;;;;;6.62;100.00;101346.69;4998605;28;20088;-83
2023/04/07 02:42:38;;;;;;;32.77;13.23;;;;;;;6.65;100.00;101343.66;5015330;28;20057;-83
2023/04/07 02:45:05;;;;;;;31.20;13.35;;;;;;;6.65;100.00;101349.03;4997743;28;20061;-83
2023/04/07 02:47:31;;;;;;;37.50;14.65;;;;;;;6.64;100.00;101344.66;5013640;28;20125;-83
2023/04/07 02:49:56;;;;;;;39.42;14.80;;;;;;;6.68;100.00;101348.69;5015232;28;20389;-83
2023/04/07 02:52:22;;;;;;;37.80;13.70;;;;;;;6.65;100.00;101352.56;4981729;28;20113;-83
2023/04/07 02:54:47;;;;;;;36.63;14.77;;;;;;;6.65;100.00;101352.56;5015469;28;20117;-83
2023/04/07 02:57:13;;;;;;;33.80;13.87;;;;;;;6.64;100.00;101355.44;4997109;28;20045;-84
2023/04/07 02:59:39;;;;;;;29.20;13.13;;;;;;;6.61;100.00;101348.53;4981322;28;20030;-84
2023/04/07 03:02:07;;;;;;;28.10;11.77;;;;;;;6.62;100.00;101354.78;4997675;28;20064;-84
2023/04/07 03:04:33;;;;;;;28.52;12.10;;;;;;;6.60;100.00;101356.81;5015173;28;20058;-83
2023/04/07 03:06:58;;;;;;;35.60;11.75;;;;;;;6.59;100.00;101358.69;4997542;28;20057;-84
2023/04/07 03:09:23;;;;;;;32.47;12.83;;;;;;;6.59;100.00;101352.44;5014845;28;20037;-83
2023/04/07 03:11:49;;;;;;;29.70;13.10;;;;;;;6.58;100.00;101356.97;4981163;28;20033;-84
2023/04/07 03:14:15;;;;;;;34.93;12.10;;;;;;;6.59;100.00;101355.16;5015063;28;20030;-83
2023/04/07 03:16:41;;;;;;;33.03;12.73;;;;;;;6.57;100.00;101366.13;4981024;28;20501;-84
2023/04/07 03:19:06;;;;;;;36.72;12.77;;;;;;;6.62;100.00;101370.97;4997247;28;20057;-84
2023/04/07 03:21:32;;;;;;;37.10;13.00;;;;;;;6.60;100.00;101363.06;4997254;28;20030;-83
2023/04/07 03:23:57;;;;;;;25.37;10.97;;;;;;;6.60;100.00;101368.44;4997511;28;20427;-83
2023/04/07 03:26:22;;;;;;;33.63;12.20;;;;;;;6.58;100.00;101359.69;5014836;28;20034;-84
2023/04/07 03:28:48;;;;;;;29.00;11.27;;;;;;;6.60;100.00;101365.75;4981017;28;20296;-84
2023/04/07 03:31:13;;;;;;;33.87;11.83;;;;;;;6.56;100.00;101361.72;4997446;28;20046;-84
2023/04/07 03:33:39;;;;;;;33.73;11.47;;;;;;;6.54;100.00;101361.06;5014290;28;20470;-83
2023/04/07 03:36:07;;;;;;;30.07;11.50;;;;;;;6.55;100.00;101361.91;5014675;28;20034;-83
2023/04/07 03:38:32;;;;;;;35.53;11.70;;;;;;;6.56;100.00;101366.28;4980787;28;20489;-83
2023/04/07 03:40:58;;;;;;;28.33;10.83;;;;;;;6.52;100.00;101363.09;4996841;28;20080;-83
2023/04/07 03:43:23;;;;;;;32.70;12.52;;;;;;;6.48;100.00;101357.22;4981461;28;20365;-83
2023/04/07 03:45:49;;;;;;;34.13;12.90;;;;;;;6.45;100.00;101359.41;4964960;28;20073;-83
2023/04/07 03:48:14;;;;;;;43.00;13.98;;;;;;;6.42;100.00;101355.22;4997669;28;20100;-83
2023/04/07 03:50:40;;;;;;;36.40;12.65;;;;;;;6.44;100.00;101360.44;5014672;28;20123;-83
2023/04/07 03:53:07;;;;;;;36.77;12.67;;;;;;;6.43;100.00;101366.84;5014072;28;20108;-83
2023/04/07 03:55:33;;;;;;;37.30;13.23;;;;;;;6.43;100.00;101366.84;4997379;28;20117;-83
2023/04/07 03:57:58;;;;;;;35.13;13.52;;;;;;;6.43;100.00;101369.53;4996637;28;20034;-83
2023/04/07 04:00:24;;;;;;;38.50;13.70;;;;;;;6.45;100.00;101359.41;4996538;28;20080;-84
2023/04/07 04:02:50;;;;;;;45.50;14.05;;;;;;;6.43;100.00;101366.84;5014227;28;20479;-83
2023/04/07 04:05:15;;;;;;;42.72;13.63;;;;;;;6.44;100.00;101373.94;4980324;28;20065;-83
2023/04/07 04:07:41;;;;;;;44.42;14.68;;;;;;;6.43;100.00;101375.75;4996661;28;20041;-83
2023/04/07 04:10:07;;;;;;;35.60;13.33;;;;;;;6.44;100.00;101373.94;4979820;28;20072;-83
2023/04/07 04:12:32;;;;;;;43.45;13.68;;;;;;;6.44;100.00;101369.38;4979979;28;20096;-83
2023/04/07 04:14:57;;;;;;;40.30;13.63;;;;;;;6.43;100.00;101370.38;4980239;28;20493;-83
2023/04/07 04:17:24;;;;;;;40.93;13.50;;;;;;;6.42;100.00;101370.53;4997047;28;20084;-84
2023/04/07 04:19:50;;;;;;;43.97;14.40;;;;;;;6.40;100.00;101364.50;4996430;28;20026;-83
2023/04/07 04:22:16;;;;;;;40.90;13.70;;;;;;;6.37;100.00;101367.56;5013715;28;20378;-84
2023/04/07 04:24:41;;;;;;;39.65;12.60;;;;;;;6.34;100.00;101357.94;4979935;28;20112;-84
2023/04/07 04:27:07;;;;;;;39.90;11.97;;;;;;;6.26;100.00;101371.44;4963820;28;20454;-83
2023/04/07 04:29:32;;;;;;;39.83;12.88;;;;;;;6.20;100.00;101364.06;4980244;28;20088;-83
2023/04/07 04:31:58;;;;;;;41.97;12.83;;;;;;;6.17;100.00;101365.28;5013770;28;20030;-84
2023/04/07 04:34:23;;;;;;;52.27;13.83;;;;;;;6.18;100.00;101371.50;4995931;28;20509;-83
2023/04/07 04:36:51;;;;;;;41.85;12.60;;;;;;;6.20;100.00;101369.44;4996094;28;20030;-83
2023/04/07 04:39:16;;;;;;;43.40;12.57;;;;;;;6.21;100.00;101371.97;4980271;28;20037;-83
2023/04/07 04:41:42;;;;;;;41.80;13.27;;;;;;;6.20;100.00;101375.69;4996507;28;20036;-83
2023/04/07 04:44:07;;;;;;;40.90;12.57;;;;;;;6.19;100.00;101378.56;4979737;28;20379;-83
2023/04/07 04:46:33;;;;;;;41.20;12.77;;;;;;;6.21;100.00;101380.06;4996227;28;20064;-84
2023/04/07 04:48:58;;;;;;;38.30;12.97;;;;;;;6.22;100.00;101389.00;4980881;28;20406;-83
2023/04/07 04:51:23;;;;;;;45.10;14.02;;;;;;;6.21;100.00;101390.00;4979982;28;20121;-83
2023/04/07 04:53:49;;;;;;;39.88;11.63;;;;;;;6.19;100.00;101392.03;4996413;28;20038;-83
2023/04/07 04:56:14;;;;;;;38.97;12.03;;;;;;;6.18;100.00;101387.66;5013633;28;20034;-83
2023/04/07 04:58:44;;;;;;;42.33;12.57;;;;;;;6.15;100.00;101394.22;4995803;28;20045;-84
2023/04/07 05:01:10;;;;;;;38.95;11.85;;;;;;;6.15;100.00;101396.91;4995861;28;20033;-84
2023/04/07 05:03:36;;;;;;;38.10;11.80;;;;;;;6.15;100.00;101403.13;4996464;28;20026;-83
2023/04/07 05:06:01;;;;;;;42.10;12.50;;;;;;;6.15;100.00;101402.31;4979513;28;20087;-84
2023/04/07 05:08:26;;;;;;;41.10;11.83;;;;;;;6.17;100.00;101404.84;4980495;28;20034;-84
2023/04/07 05:10:52;;;;;;;42.13;11.77;;;;;;;6.18;100.00;101409.22;4980039;28;20042;-85
2023/04/07 05:13:17;;;;;;;44.03;11.73;;;;;;;6.15;100.00;101413.09;4995926;28;20068;-85
2023/04/07 05:15:45;;;;;;;44.38;12.90;;;;;;;6.14;100.00;101414.94;4979634;28;20026;-86
2023/04/07 05:18:13;;;;;;;40.60;11.68;;;;;;;6.17;100.00;101415.59;4979945;28;20492;-86
2023/04/07 05:20:38;;;;;;;45.55;13.00;;;;;;;6.18;100.00;101414.59;4996177;28;20030;-87
2023/04/07 05:23:07;;;;;;;36.05;11.63;;;;;;;6.20;100.00;101421.50;5017128;28;20049;-84
2023/04/07 05:25:35;;;;;;;41.77;12.70;;;;;;;6.19;100.00;101417.13;4999335;28;20022;-85
2023/04/07 05:28:01;;;;;;;39.92;12.32;;;;;;;6.21;100.00;101415.09;4999396;28;20533;-85
2023/04/07 05:30:26;;;;;;;39.60;12.80;;;;;;;6.19;100.00;101419.81;4999073;28;20109;-87
2023/04/07 05:32:52;;;;;;;42.47;13.57;;;;;;;6.20;100.00;101428.72;4999165;28;20292;-85
2023/04/07 05:35:18;;;;;;;37.03;12.35;;;;;;;6.18;100.00;101428.06;4999214;28;20083;-83
2023/04/07 05:37:43;;;;;;;37.63;12.87;;;;;;;6.21;100.00;101427.72;4999793;28;20029;-84
2023/04/07 05:40:09;;;;;;;40.33;14.57;;;;;;;6.19;100.00;101433.28;4999037;28;20474;-85
2023/04/07 05:42:38;;;;;;;46.80;15.52;;;;;;;6.22;100.00;101435.63;4999020;28;20022;-85
2023/04/07 05:45:10;;;;;;;42.70;13.18;;;;;;;6.24;100.00;101441.69;4983942;28;20361;-85
2023/04/07 05:47:39;;;;;;;42.15;14.85;;;;;;;6.24;100.00;101433.59;4998477;28;20135;-85
2023/04/07 05:50:05;;;;;;;46.38;14.93;;;;;;;6.26;100.00;101428.91;4998638;28;20045;-85
2023/04/07 05:52:30;;;;;;;48.65;14.07;;;;;;;6.27;100.00;101427.88;5016236;28;20355;-85
2023/04/07 05:54:56;;;;;;;43.72;15.13;;;;;;;6.31;100.00;101428.38;4999030;28;20030;-86
2023/04/07 05:57:21;;;;;;;48.50;15.60;;;;;;;6.32;100.00;101427.38;4998869;28;20034;-86
2023/04/07 05:59:47;;;;;;;42.70;15.07;;;;;;;6.37;100.00;101432.25;5016231;28;20030;-86
2023/04/07 06:02:12;;;;;;;46.28;15.35;;;;;;;6.38;100.00;101433.91;4982088;28;20540;-87
2023/04/07 06:04:38;;;;;;;44.20;15.07;;;;;;;6.40;100.00;101431.88;4998718;28;20120;-86
2023/04/07 06:07:04;;;;;;;51.77;15.87;;;;;;;6.48;100.00;101442.63;5016175;28;20032;-86
2023/04/07 06:09:29;;;;;;;45.67;16.48;;;;;;;6.46;100.00;101442.81;4982576;28;20034;-86
2023/04/07 06:11:55;;;;;;;44.07;16.43;;;;;;;6.53;100.00;101442.13;4981857;28;20030;-86
2023/04/07 06:14:21;;;;;;;48.72;16.52;;;;;;;6.61;100.00;101447.47;5016001;28;20414;-86
2023/04/07 06:16:46;;;;;;;45.13;17.35;;;;;;;6.61;100.00;101456.41;4998180;28;20030;-86
2023/04/07 06:19:20;;;;;;;50.67;16.70;;;;;;;6.64;100.00;101457.91;5015874;28;20061;-86
2023/04/07 06:21:48;;;;;;;46.95;16.60;;;;;;;6.65;100.00;101457.72;4998290;28;20422;-86
2023/04/07 06:24:14;;;;;;;41.07;16.20;;;;;;;6.64;100.00;101449.81;4998287;28;20048;-86
2023/04/07 06:26:40;;;;;;;50.28;16.85;;;;;;;6.70;100.00;101442.88;4981770;28;20059;-86
2023/04/07 06:29:08;;;;;;;42.63;15.63;;;;;;;6.73;100.00;101458.72;5015643;28;20061;-86
2023/04/07 06:31:34;;;;;;;47.75;17.67;;;;;;;6.77;100.00;101458.19;5015098;28;20061;-86
2023/04/07 06:33:59;;;;;;;42.60;16.83;;;;;;;6.83;100.00;101468.28;5015329;28;20104;-86
2023/04/07 06:36:26;;;;;;;42.22;17.33;;;;;;;6.92;100.00;101465.56;4981726;28;20125;-86
2023/04/07 06:38:51;;;;;;;50.25;16.85;;;;;;;7.00;100.00;101465.53;5015150;28;20109;-87
2023/04/07 06:41:17;;;;;;;42.53;17.33;;;;;;;7.05;100.00;101473.91;4997474;28;20434;-87
2023/04/07 06:43:46;;;;;;;39.20;16.60;;;;;;;7.12;100.00;101469.50;4997690;28;20038;-86
2023/04/07 06:46:12;;;;;;;37.88;16.83;;;;;;;7.16;100.00;101469.97;4997717;28;20084;-86
2023/04/07 06:48:37;;;;;;;38.53;15.93;;;;;;;7.29;100.00;101472.09;5015688;28;20053;-86
2023/04/07 06:51:03;;;;;;;37.33;15.38;;;;;;;7.39;100.00;101478.09;4997382;28;20026;-85
2023/04/07 06:53:28;;;;;;;37.83;16.00;;;;;;;7.45;100.00;101476.53;4997273;28;20042;-85
2023/04/07 06:56:04;;;;;;;34.60;15.13;;;;;;;7.51;100.00;101473.13;4996843;28;20368;-85
2023/04/07 06:58:30;;;;;;;36.13;14.95;;;;;;;7.57;100.00;101485.91;4980896;28;20084;-85
2023/04/07 07:00:55;;;;;;;34.55;14.38;;;;;;;7.62;100.00;101482.66;4997696;28;20408;-85
2023/04/07 07:03:21;;;;;;;34.00;14.63;;;;;;;7.66;100.00;101484.84;4980915;28;20394;-85
2023/04/07 07:05:46;;;;;;;31.10;12.73;;;;;;;7.70;100.00;101488.84;4981412;28;20113;-85
2023/04/07 07:08:11;;;;;;;25.97;11.83;;;;;;;7.85;100.00;101488.91;4997197;28;20041;-85
2023/04/07 07:10:37;;;;;;;20.63;10.05;;;;;;;7.90;100.00;101482.97;4981476;28;20554;-86
2023/04/07 07:13:02;;;;;;;22.95;10.90;;;;;;;7.96;100.00;101489.47;5014712;28;20458;-85
2023/04/07 07:15:28;;;;;;;27.80;10.93;;;;;;;8.05;100.00;101489.22;4980664;28;20029;-85
2023/04/07 07:17:53;;;;;;;26.63;11.53;;;;;;;8.11;100.00;101490.38;5015796;28;20064;-85
2023/04/07 07:20:19;;;;;;;27.97;10.80;;;;;;;8.10;100.00;101487.84;4997118;28;20069;-85
2023/04/07 07:22:44;;;;;;;27.45;10.55;;;;;;;8.05;100.00;101491.94;4981426;28;20054;-85
2023/04/07 07:25:10;;;;;;;24.05;9.73;;;;;;;8.08;100.00;101499.66;4981083;28;20120;-85
2023/04/07 07:27:35;;;;;;;20.43;9.13;;;;;;;8.07;100.00;101495.31;4981575;28;20076;-85
2023/04/07 07:30:01;;;;;;;18.73;8.80;;;;;;;8.15;100.00;101504.34;4997251;28;20068;-85
2023/04/07 07:32:26;;;;;;;20.88;9.52;;;;;;;8.29;100.00;101500.00;4981488;28;20041;-85
2023/04/07 07:34:52;;;;;;;21.50;9.13;;;;;;;8.43;100.00;101505.44;4996737;28;20034;-85
2023/04/07 07:37:17;;;;;;;20.13;8.93;;;;;;;8.59;100.00;101507.16;4981208;28;20038;-85
2023/04/07 07:39:43;;;;;;;16.23;7.13;;;;;;;8.65;100.00;101502.88;5014207;28;20041;-85
2023/04/07 07:42:08;;;;;;;14.68;6.45;;;;;;;8.71;100.00;101503.97;4981130;28;20037;-85
2023/04/07 07:44:33;;;;;;;14.07;5.33;;;;;;;8.78;100.00;101516.56;4996370;28;20582;-85
2023/04/07 07:46:59;;;;;;;11.57;5.57;;;;;;;8.82;100.00;101513.50;4980362;28;20053;-85
2023/04/07 07:49:24;;;;;;;14.43;4.85;;;;;;;8.87;100.00;101522.72;4996691;28;20129;-85
2023/04/07 07:51:50;;;;;;;11.40;4.67;;;;;;;8.78;100.00;101521.13;4996429;28;20053;-86
2023/04/07 07:54:15;;;;;;;11.87;4.70;;;;;;;8.74;100.00;101517.97;4980409;28;20034;-86
2023/04/07 07:56:41;;;;;;;10.65;4.18;;;;;;;8.76;100.00;101526.72;4996786;28;20116;-86
2023/04/07 07:59:06;;;;;;;10.77;4.30;;;;;;;8.77;100.00;101524.88;4980922;28;20049;-87
2023/04/07 08:01:34;;;;;;;9.10;3.93;;;;;;;8.78;100.00;101521.97;4996278;28;20042;-85
2023/04/07 08:04:00;;;;;;;9.63;3.80;;;;;;;8.77;100.00;101520.28;4996370;28;20100;-85
2023/04/07 08:06:26;;;;;;;10.57;3.90;;;;;;;8.83;100.00;101523.25;5013989;28;20037;-85
2023/04/07 08:08:51;;;;;;;9.63;3.90;;;;;;;8.93;100.00;101521.97;4996889;28;20026;-84
2023/04/07 08:11:16;;;;;;;6.73;3.23;;;;;;;9.13;100.00;101530.34;5014843;28;20029;-85
2023/04/07 08:13:45;;;;;;;9.68;3.95;;;;;;;9.34;100.00;101536.84;5013743;28;20034;-85
2023/04/07 08:16:10;;;;;;;8.68;3.10;;;;;;;9.59;100.00;101540.03;4997694;28;20041;-84
2023/04/07 08:18:38;;;;;;;10.10;3.53;;;;;;;9.67;100.00;101536.38;4980360;28;20092;-85
2023/04/07 08:21:05;;;;;;;8.10;3.08;;;;;;;9.80;100.00;101539.22;5013548;28;20034;-85
2023/04/07 08:23:31;;;;;;;10.37;2.93;;;;;;;9.84;100.00;101545.09;5013554;28;20030;-85
2023/04/07 08:25:56;;;;;;;7.28;3.03;;;;;;;9.82;100.00;101537.16;4997210;28;20084;-85
2023/04/07 08:28:25;;;;;;;9.50;3.42;;;;;;;9.91;100.00;101540.56;4996337;28;20034;-85
2023/04/07 08:30:50;;;;;;;14.30;3.93;;;;;;;9.91;100.00;101539.75;4996153;28;20124;-85
2023/04/07 08:33:15;;;;;;;7.13;3.13;;;;;;;9.78;100.00;101551.28;4996034;28;20117;-84
2023/04/07 08:35:41;;;;;;;6.97;3.23;;;;;;;9.53;100.00;101562.47;4979917;28;20040;-85
2023/04/07 08:38:08;;;;;;;11.13;2.87;;;;;;;9.34;100.00;101565.78;4964013;28;20089;-85
2023/04/07 08:40:33;;;;;;;4.57;2.13;;;;;;;9.18;100.00;101559.53;4996263;28;20057;-85
2023/04/07 08:43:00;;;;;;;6.70;1.93;;;;;;;9.05;100.00;101568.34;4995939;28;20470;-85
2023/04/07 08:45:26;;;;;;;10.55;2.08;;;;;;;8.91;100.00;101580.84;5014106;28;20034;-85
2023/04/07 08:47:57;;;;;;;6.78;2.08;;;;;;;8.83;100.00;101562.00;5013461;28;20050;-85
2023/04/07 08:50:25;;;;;;;7.55;2.03;;;;;;;8.80;100.00;101570.50;4996298;28;20034;-85
2023/04/07 08:52:53;;;;;;;6.55;2.13;;;;;;;8.78;100.00;101562.56;5013388;28;20033;-85
2023/04/07 08:55:22;;;;;;;5.95;2.38;;;;;;;8.78;100.00;101581.50;5013358;28;20435;-85
2023/04/07 08:57:50;;;;;;;8.10;2.15;;;;;;;8.82;100.00;101587.38;5017722;28;20034;-85
2023/04/07 09:00:16;;;;;;;5.10;1.60;;;;;;;8.84;100.00;101579.91;4999917;28;20380;-85
2023/04/07 09:02:44;;;;;;;6.90;1.67;;;;;;;8.95;100.00;101582.16;5016069;28;20029;-84
2023/04/07 09:05:10;;;;;;;7.13;1.80;;;;;;;9.29;100.00;101578.03;4984325;28;20064;-85
2023/04/07 09:07:39;;;;;;;6.38;1.63;;;;;;;9.57;100.00;101579.19;5000002;28;20432;-84
2023/04/07 09:10:06;;;;;;;4.50;1.95;;;;;;;9.77;100.00;101582.13;5015764;28;20116;-85
2023/04/07 09:12:32;;;;;;;6.57;1.60;;;;;;;9.87;100.00;101579.09;4999095;28;20449;-84
2023/04/07 09:14:58;;;;;;;4.75;1.90;;;;;;;9.89;100.00;101582.44;5017235;28;20038;-84
2023/04/07 09:17:28;;;;;;;3.97;1.58;;;;;;;9.95;100.00;101585.25;4999538;28;20084;-84
2023/04/07 09:19:58;;;;;;;7.32;1.80;;;;;;;9.92;100.00;101584.78;4983185;28;20076;-84
2023/04/07 09:22:41;;;;;;;5.47;1.60;;;;;;;9.79;100.00;101580.91;4999653;28;20528;-84
2023/04/07 09:25:18;;;;;;;5.97;1.85;;;;;;;9.76;100.00;101589.41;5016795;28;20026;-84
2023/04/07 09:28:03;;;;;;;8.00;2.42;;;;;;;9.84;100.00;101586.56;5016796;28;20405;-85
2023/04/07 09:30:30;;;;;;;5.05;1.85;;;;;;;9.98;100.00;101584.00;4999242;28;20129;-84
2023/04/07 09:33:00;;;;;;;6.60;1.65;;;;;;;10.10;100.00;101587.06;4983599;28;20060;-85
2023/04/07 09:35:27;;;;;;;8.80;1.83;;;;;;;10.25;100.00;101585.09;4999773;28;20026;-84
2023/04/07 09:38:06;;;;;;;6.78;1.80;;;;;;;10.59;100.00;101597.09;5016492;28;20032;-85
2023/04/07 09:40:32;;;;;;;6.15;1.08;;;;;;;10.65;96.86;101584.59;4999871;28;20061;-85
2023/04/07 09:42:58;;;;;;;5.65;1.20;;;;;;;10.64;97.79;101585.63;4999003;28;20041;-85
2023/04/07 09:45:30;;;;;;;6.90;1.93;;;;;;;10.63;95.42;101587.53;4998741;28;20034;-86
2023/04/07 09:47:56;;;;;;;4.22;1.40;;;;;;;10.67;97.57;101582.53;5016566;28;20053;-86
2023/04/07 09:50:40;;;;;;;5.47;1.52;;;;;;;10.76;96.51;101580.50;4999593;28;20045;-84
2023/04/07 09:53:06;;;;;;;7.17;1.70;;;;;;;10.85;95.93;101582.00;4998476;28;20064;-86
2023/04/07 09:55:35;;;;;;;9.27;1.88;;;;;;;10.84;94.05;101583.91;4999355;28;20034;-84
2023/04/07 09:58:03;;;;;;;5.43;1.63;;;;;;;10.75;95.62;101584.25;4998814;28;20128;-84
2023/04/07 10:00:31;;;;;;;8.73;1.80;;;;;;;10.61;96.65;101583.31;4998473;28;20088;-85
2023/04/07 10:02:57;;;;;;;6.15;1.77;;;;;;;10.45;98.25;101589.88;4982475;28;20041;-86
2023/04/07 10:05:24;;;;;;;11.17;1.80;;;;;;;10.25;98.60;101598.66;4999273;28;20326;-86
2023/04/07 10:07:49;;;;;;;13.02;2.40;;;;;;;10.06;100.00;101599.31;5015514;28;20037;-87
2023/04/07 10:10:15;;;;;;;6.63;1.90;;;;;;;9.94;100.00;101594.38;5015842;28;20030;-86
2023/04/07 10:12:41;;;;;;;7.50;1.73;;;;;;;10.02;100.00;101604.25;4998387;28;20037;-87
2023/04/07 10:15:08;;;;;;;9.20;1.92;;;;;;;10.17;100.00;101596.91;5015733;28;20030;-85
2023/04/07 10:17:35;;;;;;;7.50;1.77;;;;;;;10.23;100.00;101598.03;4998504;28;20113;-86
2023/04/07 10:20:03;;;;;;;9.10;1.70;;;;;;;10.27;100.00;101602.00;4997951;28;20038;-86
2023/04/07 10:22:30;;;;;;;5.65;1.85;;;;;;;10.20;99.27;101606.53;4998266;28;20086;-86
2023/04/07 10:25:01;;;;;;;6.55;1.70;;;;;;;10.15;98.17;101614.41;4981614;28;20038;-85
2023/04/07 10:27:34;;;;;;;8.10;1.50;;;;;;;10.02;96.95;101620.53;4998335;28;20456;-86
2023/04/07 10:30:03;;;;;;;7.60;1.50;;;;;;;10.08;99.22;101618.94;5014619;28;20455;-86
2023/04/07 10:32:31;;;;;;;6.67;1.80;;;;;;;10.30;97.61;101623.31;4998347;28;20030;-86
2023/04/07 10:34:58;;;;;;;7.57;1.80;;;;;;;10.50;96.21;101633.53;4981573;28;20088;-85
2023/04/07 10:37:26;;;;;;;8.52;1.50;;;;;;;10.65;96.85;101626.16;4982276;28;20113;-85
2023/04/07 10:40:18;;;;;;;5.80;1.27;;;;;;;10.84;94.81;101626.50;5014967;28;20029;-86
2023/04/07 10:42:46;;;;;;;9.07;1.23;;;;;;;10.94;92.99;101627.00;5014825;28;20509;-85
2023/04/07 10:45:14;;;;;;;5.37;1.37;;;;;;;11.14;93.04;101631.69;4981785;28;20034;-85
2023/04/07 10:48:00;;;;;;;10.02;1.77;;;;;;;11.22;94.39;101629.66;4997381;28;20045;-85
2023/04/07 10:50:25;;;;;;;8.27;1.23;;;;;;;11.20;93.71;101633.59;4983292;28;20033;-85
2023/04/07 10:53:14;;;;;;;7.70;1.77;;;;;;;11.01;94.14;101635.16;4997613;28;20021;-85
2023/04/07 10:55:43;;;;;;;5.40;1.73;;;;;;;10.81;93.00;101632.34;4997652;28;20030;-85
2023/04/07 10:58:22;;;;;;;8.30;1.90;;;;;;;10.83;94.13;101636.50;4998139;28;20370;-86
2023/04/07 11:00:57;;;;;;;7.78;1.90;;;;;;;10.83;93.99;101636.50;4998131;28;20413;-85
2023/04/07 11:03:23;;;;;;;11.70;2.08;;;;;;;10.90;93.31;101630.31;5012934;28;20512;-85
2023/04/07 11:05:49;;;;;;;9.37;1.83;;;;;;;11.08;92.75;101636.03;5014608;28;20026;-85
2023/04/07 11:08:30;;;;;;;6.95;1.60;;;;;;;11.24;89.27;101632.19;4997718;28;20480;-85
2023/04/07 11:10:56;;;;;;;6.80;1.30;;;;;;;11.35;87.50;101637.06;4997943;28;20061;-85
2023/04/07 11:13:21;;;;;;;10.80;1.57;;;;;;;11.54;86.92;101638.16;4997185;28;20466;-85
2023/04/07 11:15:49;;;;;;;4.03;1.33;;;;;;;11.87;85.06;101642.03;5015740;28;20034;-85